This is the latest recevied weather packets stored in our database for station/object OE3AOG. If no packets are shown the sender has not sent any weather packets the latest 1 day(s).
| Time | Temp. | Humidity | Pressure | Rain* | Wind** | Luminosity | Snow |
|---|---|---|---|---|---|---|---|
| 1777968924 | 20° C | 47% | 1008 hPa | 0 mm | 1.34 m/s, 72° | 483 W/m² | - |
| 1777968316 | 19.44° C | 48% | 1008 hPa | 0 mm | 0.89 m/s, 74° | 533 W/m² | - |
| 1777967724 | 18.89° C | 48% | 1008 hPa | 0 mm | 1.34 m/s, 104° | 507 W/m² | - |
| 1777967124 | 18.89° C | 49% | 1008.1 hPa | 0 mm | 0.89 m/s, 54° | 478 W/m² | - |
| 1777966516 | 17.78° C | 50% | 1008.2 hPa | 0 mm | 0.89 m/s, 111° | 415 W/m² | - |
| 1777965924 | 17.78° C | 50% | 1008.2 hPa | 0 mm | 1.79 m/s, 136° | 405 W/m² | - |
| 1777965315 | 17.22° C | 50% | 1008.2 hPa | 0 mm | 1.79 m/s, 124° | 400 W/m² | - |
| 1777964724 | 17.78° C | 49% | 1008.2 hPa | 0 mm | 0.89 m/s, 125° | 373 W/m² | - |
| 1777964116 | 15.56° C | 56% | 1008.3 hPa | 0 mm | 0.45 m/s, 125° | 326 W/m² | - |
| 1777963524 | 13.89° C | 62% | 1008.2 hPa | 0 mm | 0 m/s | 272 W/m² | - |
| 1777962916 | 13.89° C | 63% | 1008.3 hPa | 0 mm | 0.45 m/s, 128° | 83 W/m² | - |
| 1777962324 | 13.89° C | 63% | 1008.1 hPa | 0 mm | 0.45 m/s, 130° | 75 W/m² | - |
| 1777961725 | 13.89° C | 63% | 1008.1 hPa | 0 mm | 0.45 m/s, 111° | 84 W/m² | - |
| 1777961125 | 13.89° C | 62% | 1008 hPa | 0 mm | 0 m/s | 73 W/m² | - |
| 1777960516 | 13.33° C | 61% | 1008.1 hPa | 0 mm | 0.45 m/s, 135° | 83 W/m² | - |
| 1777959924 | 13.33° C | 62% | 1008.1 hPa | 0 mm | 0.89 m/s, 131° | 98 W/m² | - |
| 1777959316 | 13.33° C | 62% | 1008 hPa | 0 mm | 0.89 m/s, 141° | 88 W/m² | - |
| 1777958724 | 13.33° C | 63% | 1008 hPa | 0 mm | 0.89 m/s, 119° | 78 W/m² | - |
| 1777958125 | 13.33° C | 61% | 1007.9 hPa | 0 mm | 0.89 m/s, 82° | 71 W/m² | - |
| 1777957517 | 13.89° C | 60% | 1007.9 hPa | 0 mm | 0.45 m/s, 83° | 66 W/m² | - |
| 1777956924 | 13.33° C | 64% | 1007.9 hPa | 0 mm | 0.89 m/s, 115° | 72 W/m² | - |
| 1777956316 | 11.67° C | 67% | 1007.9 hPa | 0 mm | 0.89 m/s, 127° | 81 W/m² | - |
| 1777955724 | 11.11° C | 68% | 1008 hPa | 0 mm | 0.89 m/s, 53° | 54 W/m² | - |
| 1777955117 | 11.11° C | 69% | 1007.9 hPa | 0 mm | 0.89 m/s, 106° | 36 W/m² | - |
| 1777954525 | 10.56° C | 71% | 1007.8 hPa | 0 mm | 0.89 m/s, 116° | 24 W/m² | - |
* Rain latest hour (hover to see other rain measurements)
** Current wind speed in m/s (hover to see current wind gust speed)